sensor_id;sensor_type;location;lat;lon;timestamp;P1;durP1;ratioP1;P2;durP2;ratioP2
4646;SDS011;2336;47.822;7.564;2023-04-24T00:01:32;0.70;;;0.70;;
4646;SDS011;2336;47.822;7.564;2023-04-24T00:04:01;0.70;;;0.70;;
4646;SDS011;2336;47.822;7.564;2023-04-24T00:06:30;1.70;;;0.70;;
4646;SDS011;2336;47.822;7.564;2023-04-24T00:08:58;0.67;;;0.57;;
4646;SDS011;2336;47.822;7.564;2023-04-24T00:11:25;1.00;;;0.67;;
4646;SDS011;2336;47.822;7.564;2023-04-24T00:13:51;1.37;;;0.70;;
4646;SDS011;2336;47.822;7.564;2023-04-24T00:16:18;1.53;;;0.60;;
4646;SDS011;2336;47.822;7.564;2023-04-24T00:18:45;0.70;;;0.70;;
4646;SDS011;2336;47.822;7.564;2023-04-24T00:21:12;0.70;;;0.70;;
4646;SDS011;2336;47.822;7.564;2023-04-24T00:23:41;8.03;;;0.63;;
4646;SDS011;2336;47.822;7.564;2023-04-24T00:26:08;1.00;;;0.60;;
4646;SDS011;2336;47.822;7.564;2023-04-24T00:28:35;0.70;;;0.60;;
4646;SDS011;2336;47.822;7.564;2023-04-24T00:31:02;0.70;;;0.70;;
4646;SDS011;2336;47.822;7.564;2023-04-24T00:33:29;3.53;;;0.70;;
4646;SDS011;2336;47.822;7.564;2023-04-24T00:35:55;0.50;;;0.50;;
4646;SDS011;2336;47.822;7.564;2023-04-24T00:38:22;0.60;;;0.60;;
4646;SDS011;2336;47.822;7.564;2023-04-24T00:40:50;0.80;;;0.63;;
4646;SDS011;2336;47.822;7.564;2023-04-24T00:43:19;1.07;;;0.80;;
4646;SDS011;2336;47.822;7.564;2023-04-24T00:45:46;0.60;;;0.60;;
4646;SDS011;2336;47.822;7.564;2023-04-24T00:48:12;1.37;;;0.60;;
4646;SDS011;2336;47.822;7.564;2023-04-24T00:50:40;1.37;;;0.60;;
4646;SDS011;2336;47.822;7.564;2023-04-24T00:53:07;0.60;;;0.60;;
4646;SDS011;2336;47.822;7.564;2023-04-24T00:55:34;4.50;;;0.77;;
4646;SDS011;2336;47.822;7.564;2023-04-24T00:58:03;0.67;;;0.67;;
4646;SDS011;2336;47.822;7.564;2023-04-24T01:00:30;0.60;;;0.60;;
4646;SDS011;2336;47.822;7.564;2023-04-24T01:02:57;0.93;;;0.77;;
4646;SDS011;2336;47.822;7.564;2023-04-24T01:05:27;0.60;;;0.60;;
4646;SDS011;2336;47.822;7.564;2023-04-24T01:07:54;0.73;;;0.60;;
4646;SDS011;2336;47.822;7.564;2023-04-24T01:10:22;4.43;;;0.70;;
4646;SDS011;2336;47.822;7.564;2023-04-24T01:12:51;0.60;;;0.60;;
4646;SDS011;2336;47.822;7.564;2023-04-24T01:15:19;0.50;;;0.50;;
4646;SDS011;2336;47.822;7.564;2023-04-24T01:17:46;0.60;;;0.60;;
4646;SDS011;2336;47.822;7.564;2023-04-24T01:20:13;0.50;;;0.50;;
4646;SDS011;2336;47.822;7.564;2023-04-24T01:22:42;0.80;;;0.50;;
4646;SDS011;2336;47.822;7.564;2023-04-24T01:25:09;0.50;;;0.50;;
4646;SDS011;2336;47.822;7.564;2023-04-24T01:27:36;0.73;;;0.63;;
4646;SDS011;2336;47.822;7.564;2023-04-24T01:30:04;0.67;;;0.67;;
4646;SDS011;2336;47.822;7.564;2023-04-24T01:32:32;0.87;;;0.80;;
4646;SDS011;2336;47.822;7.564;2023-04-24T01:34:59;1.90;;;0.60;;
4646;SDS011;2336;47.822;7.564;2023-04-24T01:37:26;0.50;;;0.50;;
4646;SDS011;2336;47.822;7.564;2023-04-24T01:39:54;1.13;;;0.63;;
4646;SDS011;2336;47.822;7.564;2023-04-24T01:42:21;0.60;;;0.60;;
4646;SDS011;2336;47.822;7.564;2023-04-24T01:44:48;0.50;;;0.50;;
4646;SDS011;2336;47.822;7.564;2023-04-24T01:47:15;0.70;;;0.60;;
4646;SDS011;2336;47.822;7.564;2023-04-24T01:49:41;0.60;;;0.60;;
4646;SDS011;2336;47.822;7.564;2023-04-24T01:52:12;0.60;;;0.60;;
4646;SDS011;2336;47.822;7.564;2023-04-24T01:54:39;1.07;;;0.60;;
4646;SDS011;2336;47.822;7.564;2023-04-24T01:57:07;4.30;;;0.60;;
4646;SDS011;2336;47.822;7.564;2023-04-24T01:59:34;0.53;;;0.53;;
4646;SDS011;2336;47.822;7.564;2023-04-24T02:02:01;0.60;;;0.60;;
4646;SDS011;2336;47.822;7.564;2023-04-24T02:04:28;1.87;;;0.63;;
4646;SDS011;2336;47.822;7.564;2023-04-24T02:06:55;4.57;;;0.70;;
4646;SDS011;2336;47.822;7.564;2023-04-24T02:09:22;1.83;;;0.60;;
4646;SDS011;2336;47.822;7.564;2023-04-24T02:11:48;0.53;;;0.53;;
4646;SDS011;2336;47.822;7.564;2023-04-24T02:14:16;1.07;;;0.70;;
4646;SDS011;2336;47.822;7.564;2023-04-24T02:16:43;1.13;;;0.80;;
4646;SDS011;2336;47.822;7.564;2023-04-24T02:19:10;0.57;;;0.50;;
4646;SDS011;2336;47.822;7.564;2023-04-24T02:21:37;0.70;;;0.70;;
4646;SDS011;2336;47.822;7.564;2023-04-24T02:24:04;0.70;;;0.70;;
4646;SDS011;2336;47.822;7.564;2023-04-24T02:26:30;0.90;;;0.80;;
4646;SDS011;2336;47.822;7.564;2023-04-24T02:28:57;2.10;;;1.00;;
4646;SDS011;2336;47.822;7.564;2023-04-24T02:31:26;0.73;;;0.60;;
4646;SDS011;2336;47.822;7.564;2023-04-24T02:33:52;1.60;;;0.87;;
4646;SDS011;2336;47.822;7.564;2023-04-24T02:36:19;2.60;;;0.80;;
4646;SDS011;2336;47.822;7.564;2023-04-24T02:38:46;1.00;;;0.80;;
4646;SDS011;2336;47.822;7.564;2023-04-24T02:41:12;2.83;;;0.90;;
4646;SDS011;2336;47.822;7.564;2023-04-24T02:43:39;1.07;;;0.80;;
4646;SDS011;2336;47.822;7.564;2023-04-24T02:46:06;1.67;;;0.70;;
4646;SDS011;2336;47.822;7.564;2023-04-24T02:48:34;2.60;;;0.70;;
4646;SDS011;2336;47.822;7.564;2023-04-24T02:51:00;1.00;;;0.80;;
4646;SDS011;2336;47.822;7.564;2023-04-24T02:53:27;0.70;;;0.70;;
4646;SDS011;2336;47.822;7.564;2023-04-24T02:55:54;0.77;;;0.77;;
4646;SDS011;2336;47.822;7.564;2023-04-24T02:58:21;1.63;;;0.77;;
4646;SDS011;2336;47.822;7.564;2023-04-24T03:00:48;2.23;;;1.20;;
4646;SDS011;2336;47.822;7.564;2023-04-24T03:03:18;1.53;;;0.80;;
4646;SDS011;2336;47.822;7.564;2023-04-24T03:05:46;1.20;;;1.10;;
4646;SDS011;2336;47.822;7.564;2023-04-24T03:08:13;1.90;;;1.00;;
4646;SDS011;2336;47.822;7.564;2023-04-24T03:10:40;1.40;;;1.07;;
4646;SDS011;2336;47.822;7.564;2023-04-24T03:13:07;1.63;;;0.93;;
4646;SDS011;2336;47.822;7.564;2023-04-24T03:15:33;0.83;;;0.80;;
4646;SDS011;2336;47.822;7.564;2023-04-24T03:18:00;0.90;;;0.90;;
4646;SDS011;2336;47.822;7.564;2023-04-24T03:20:27;1.40;;;0.80;;
4646;SDS011;2336;47.822;7.564;2023-04-24T03:22:55;1.23;;;0.83;;
4646;SDS011;2336;47.822;7.564;2023-04-24T03:25:22;0.80;;;0.80;;
4646;SDS011;2336;47.822;7.564;2023-04-24T03:27:49;1.17;;;0.83;;
4646;SDS011;2336;47.822;7.564;2023-04-24T03:30:16;1.10;;;1.00;;
4646;SDS011;2336;47.822;7.564;2023-04-24T03:32:42;2.73;;;1.17;;
4646;SDS011;2336;47.822;7.564;2023-04-24T03:35:09;3.40;;;1.00;;
4646;SDS011;2336;47.822;7.564;2023-04-24T03:37:36;3.13;;;1.00;;
4646;SDS011;2336;47.822;7.564;2023-04-24T03:40:05;1.27;;;1.00;;
4646;SDS011;2336;47.822;7.564;2023-04-24T03:42:33;1.27;;;0.80;;
4646;SDS011;2336;47.822;7.564;2023-04-24T03:44:59;0.90;;;0.90;;
4646;SDS011;2336;47.822;7.564;2023-04-24T03:47:26;3.33;;;1.37;;
4646;SDS011;2336;47.822;7.564;2023-04-24T03:49:53;0.90;;;0.90;;
4646;SDS011;2336;47.822;7.564;2023-04-24T03:52:20;2.10;;;1.20;;
4646;SDS011;2336;47.822;7.564;2023-04-24T03:54:47;1.63;;;0.97;;
4646;SDS011;2336;47.822;7.564;2023-04-24T03:57:15;1.03;;;1.00;;
4646;SDS011;2336;47.822;7.564;2023-04-24T03:59:42;1.93;;;1.37;;
4646;SDS011;2336;47.822;7.564;2023-04-24T04:02:09;1.47;;;1.37;;
4646;SDS011;2336;47.822;7.564;2023-04-24T04:04:35;0.90;;;0.90;;
4646;SDS011;2336;47.822;7.564;2023-04-24T04:07:02;2.10;;;1.10;;
4646;SDS011;2336;47.822;7.564;2023-04-24T04:09:30;2.70;;;1.00;;
4646;SDS011;2336;47.822;7.564;2023-04-24T04:11:57;1.10;;;0.90;;
4646;SDS011;2336;47.822;7.564;2023-04-24T04:14:26;1.00;;;1.00;;
4646;SDS011;2336;47.822;7.564;2023-04-24T04:16:53;0.90;;;0.90;;
4646;SDS011;2336;47.822;7.564;2023-04-24T04:19:20;1.07;;;1.07;;
4646;SDS011;2336;47.822;7.564;2023-04-24T04:21:47;0.97;;;0.90;;
4646;SDS011;2336;47.822;7.564;2023-04-24T04:24:17;1.20;;;1.20;;
4646;SDS011;2336;47.822;7.564;2023-04-24T04:26:45;1.53;;;1.10;;
4646;SDS011;2336;47.822;7.564;2023-04-24T04:29:12;1.00;;;1.00;;
4646;SDS011;2336;47.822;7.564;2023-04-24T04:31:41;2.63;;;1.53;;
4646;SDS011;2336;47.822;7.564;2023-04-24T04:34:08;1.80;;;1.30;;
4646;SDS011;2336;47.822;7.564;2023-04-24T04:36:35;3.00;;;1.20;;
4646;SDS011;2336;47.822;7.564;2023-04-24T04:39:01;4.20;;;1.20;;
4646;SDS011;2336;47.822;7.564;2023-04-24T04:41:29;1.37;;;1.30;;
4646;SDS011;2336;47.822;7.564;2023-04-24T04:43:55;1.10;;;1.10;;
4646;SDS011;2336;47.822;7.564;2023-04-24T04:46:23;2.00;;;1.00;;
4646;SDS011;2336;47.822;7.564;2023-04-24T04:48:52;1.33;;;1.33;;
4646;SDS011;2336;47.822;7.564;2023-04-24T04:51:19;3.30;;;1.40;;
4646;SDS011;2336;47.822;7.564;2023-04-24T04:53:46;2.97;;;1.27;;
4646;SDS011;2336;47.822;7.564;2023-04-24T04:56:12;2.50;;;1.60;;
4646;SDS011;2336;47.822;7.564;2023-04-24T04:58:39;1.33;;;1.23;;
4646;SDS011;2336;47.822;7.564;2023-04-24T05:01:06;2.80;;;1.70;;
4646;SDS011;2336;47.822;7.564;2023-04-24T05:03:33;1.90;;;1.50;;
4646;SDS011;2336;47.822;7.564;2023-04-24T05:06:01;1.50;;;1.40;;
4646;SDS011;2336;47.822;7.564;2023-04-24T05:08:28;1.90;;;1.43;;
4646;SDS011;2336;47.822;7.564;2023-04-24T05:10:54;2.30;;;1.80;;
4646;SDS011;2336;47.822;7.564;2023-04-24T05:13:21;1.70;;;1.43;;
4646;SDS011;2336;47.822;7.564;2023-04-24T05:15:48;2.60;;;1.80;;
4646;SDS011;2336;47.822;7.564;2023-04-24T05:18:15;1.70;;;1.70;;
4646;SDS011;2336;47.822;7.564;2023-04-24T05:20:41;1.73;;;1.60;;
4646;SDS011;2336;47.822;7.564;2023-04-24T05:23:10;1.73;;;1.73;;
4646;SDS011;2336;47.822;7.564;2023-04-24T05:25:37;1.73;;;1.73;;
4646;SDS011;2336;47.822;7.564;2023-04-24T05:28:05;1.80;;;1.70;;
4646;SDS011;2336;47.822;7.564;2023-04-24T05:30:31;2.00;;;1.90;;
4646;SDS011;2336;47.822;7.564;2023-04-24T05:32:58;2.03;;;1.97;;
4646;SDS011;2336;47.822;7.564;2023-04-24T05:35:25;2.37;;;2.17;;
4646;SDS011;2336;47.822;7.564;2023-04-24T05:37:52;2.40;;;2.20;;
4646;SDS011;2336;47.822;7.564;2023-04-24T05:40:20;3.27;;;2.27;;
4646;SDS011;2336;47.822;7.564;2023-04-24T05:42:47;4.33;;;2.07;;
4646;SDS011;2336;47.822;7.564;2023-04-24T05:45:13;1.80;;;1.70;;
4646;SDS011;2336;47.822;7.564;2023-04-24T05:47:41;1.90;;;1.80;;
4646;SDS011;2336;47.822;7.564;2023-04-24T05:50:09;2.60;;;2.37;;
4646;SDS011;2336;47.822;7.564;2023-04-24T05:52:36;2.23;;;2.00;;
4646;SDS011;2336;47.822;7.564;2023-04-24T05:55:04;2.00;;;1.90;;
4646;SDS011;2336;47.822;7.564;2023-04-24T05:57:32;1.97;;;1.90;;
4646;SDS011;2336;47.822;7.564;2023-04-24T05:59:59;2.63;;;1.87;;
4646;SDS011;2336;47.822;7.564;2023-04-24T06:02:26;2.60;;;2.50;;
4646;SDS011;2336;47.822;7.564;2023-04-24T06:04:57;1.97;;;1.90;;
4646;SDS011;2336;47.822;7.564;2023-04-24T06:07:24;3.03;;;2.77;;
4646;SDS011;2336;47.822;7.564;2023-04-24T06:09:51;2.20;;;2.20;;
4646;SDS011;2336;47.822;7.564;2023-04-24T06:12:18;2.70;;;2.60;;
4646;SDS011;2336;47.822;7.564;2023-04-24T06:14:46;2.93;;;2.33;;
4646;SDS011;2336;47.822;7.564;2023-04-24T06:17:12;2.90;;;2.70;;
4646;SDS011;2336;47.822;7.564;2023-04-24T06:19:39;2.47;;;2.47;;
4646;SDS011;2336;47.822;7.564;2023-04-24T06:22:06;2.10;;;2.10;;
4646;SDS011;2336;47.822;7.564;2023-04-24T06:24:33;3.03;;;2.70;;
4646;SDS011;2336;47.822;7.564;2023-04-24T06:27:00;2.03;;;1.93;;
4646;SDS011;2336;47.822;7.564;2023-04-24T06:29:27;2.20;;;2.10;;
4646;SDS011;2336;47.822;7.564;2023-04-24T06:31:55;1.67;;;1.50;;
4646;SDS011;2336;47.822;7.564;2023-04-24T06:34:22;2.80;;;1.90;;
4646;SDS011;2336;47.822;7.564;2023-04-24T06:36:49;1.93;;;1.70;;
4646;SDS011;2336;47.822;7.564;2023-04-24T06:39:15;1.80;;;1.70;;
4646;SDS011;2336;47.822;7.564;2023-04-24T06:41:42;2.00;;;1.87;;
4646;SDS011;2336;47.822;7.564;2023-04-24T06:44:09;1.97;;;1.87;;
4646;SDS011;2336;47.822;7.564;2023-04-24T06:46:35;4.67;;;1.97;;
4646;SDS011;2336;47.822;7.564;2023-04-24T06:49:04;2.30;;;2.00;;
4646;SDS011;2336;47.822;7.564;2023-04-24T06:51:30;2.03;;;1.90;;
4646;SDS011;2336;47.822;7.564;2023-04-24T06:53:58;7.60;;;1.80;;
4646;SDS011;2336;47.822;7.564;2023-04-24T06:56:25;1.80;;;1.70;;
4646;SDS011;2336;47.822;7.564;2023-04-24T06:58:53;1.67;;;1.60;;
4646;SDS011;2336;47.822;7.564;2023-04-24T07:01:20;14.87;;;7.67;;
4646;SDS011;2336;47.822;7.564;2023-04-24T07:03:47;14.10;;;7.80;;
4646;SDS011;2336;47.822;7.564;2023-04-24T07:06:15;8.03;;;3.63;;
4646;SDS011;2336;47.822;7.564;2023-04-24T07:08:43;3.73;;;3.30;;
4646;SDS011;2336;47.822;7.564;2023-04-24T07:11:10;2.40;;;2.30;;
4646;SDS011;2336;47.822;7.564;2023-04-24T07:13:37;2.00;;;2.00;;
4646;SDS011;2336;47.822;7.564;2023-04-24T07:16:06;1.67;;;1.67;;
4646;SDS011;2336;47.822;7.564;2023-04-24T07:18:33;3.57;;;2.20;;
4646;SDS011;2336;47.822;7.564;2023-04-24T07:21:01;1.90;;;1.90;;
4646;SDS011;2336;47.822;7.564;2023-04-24T07:23:29;2.17;;;2.07;;
4646;SDS011;2336;47.822;7.564;2023-04-24T07:25:56;4.60;;;2.17;;
4646;SDS011;2336;47.822;7.564;2023-04-24T07:28:23;2.40;;;2.17;;
4646;SDS011;2336;47.822;7.564;2023-04-24T07:30:50;2.20;;;2.07;;
4646;SDS011;2336;47.822;7.564;2023-04-24T07:33:19;2.20;;;2.10;;
4646;SDS011;2336;47.822;7.564;2023-04-24T07:35:45;2.87;;;2.60;;
4646;SDS011;2336;47.822;7.564;2023-04-24T07:38:12;2.37;;;2.27;;
4646;SDS011;2336;47.822;7.564;2023-04-24T07:40:40;2.43;;;2.23;;
4646;SDS011;2336;47.822;7.564;2023-04-24T07:43:07;2.67;;;2.47;;
4646;SDS011;2336;47.822;7.564;2023-04-24T07:45:34;2.23;;;2.23;;
4646;SDS011;2336;47.822;7.564;2023-04-24T07:48:02;2.50;;;2.30;;
4646;SDS011;2336;47.822;7.564;2023-04-24T07:50:29;4.50;;;2.30;;
4646;SDS011;2336;47.822;7.564;2023-04-24T07:52:56;3.20;;;2.20;;
4646;SDS011;2336;47.822;7.564;2023-04-24T07:55:23;2.70;;;2.20;;
4646;SDS011;2336;47.822;7.564;2023-04-24T07:57:51;9.03;;;1.67;;
4646;SDS011;2336;47.822;7.564;2023-04-24T08:00:18;3.00;;;2.20;;
4646;SDS011;2336;47.822;7.564;2023-04-24T08:02:45;2.43;;;1.87;;
4646;SDS011;2336;47.822;7.564;2023-04-24T08:05:11;2.37;;;2.27;;
4646;SDS011;2336;47.822;7.564;2023-04-24T08:07:38;2.10;;;2.00;;
4646;SDS011;2336;47.822;7.564;2023-04-24T08:10:07;2.47;;;1.83;;
4646;SDS011;2336;47.822;7.564;2023-04-24T08:12:36;1.73;;;1.63;;
4646;SDS011;2336;47.822;7.564;2023-04-24T08:15:05;2.13;;;1.77;;
4646;SDS011;2336;47.822;7.564;2023-04-24T08:17:33;2.33;;;2.13;;
4646;SDS011;2336;47.822;7.564;2023-04-24T08:20:00;2.40;;;1.77;;
4646;SDS011;2336;47.822;7.564;2023-04-24T08:22:27;2.03;;;1.90;;
4646;SDS011;2336;47.822;7.564;2023-04-24T08:24:54;3.57;;;2.10;;
4646;SDS011;2336;47.822;7.564;2023-04-24T08:27:21;2.30;;;1.83;;
4646;SDS011;2336;47.822;7.564;2023-04-24T08:29:48;1.47;;;1.47;;
4646;SDS011;2336;47.822;7.564;2023-04-24T08:32:17;1.27;;;1.27;;
4646;SDS011;2336;47.822;7.564;2023-04-24T08:34:43;3.00;;;1.80;;
4646;SDS011;2336;47.822;7.564;2023-04-24T08:37:10;1.93;;;1.80;;
4646;SDS011;2336;47.822;7.564;2023-04-24T08:39:37;1.80;;;1.70;;
4646;SDS011;2336;47.822;7.564;2023-04-24T08:42:04;1.70;;;1.60;;
4646;SDS011;2336;47.822;7.564;2023-04-24T08:44:33;1.90;;;1.80;;
4646;SDS011;2336;47.822;7.564;2023-04-24T08:47:00;2.07;;;1.97;;
4646;SDS011;2336;47.822;7.564;2023-04-24T08:49:29;5.43;;;1.70;;
4646;SDS011;2336;47.822;7.564;2023-04-24T08:51:57;2.03;;;1.60;;
4646;SDS011;2336;47.822;7.564;2023-04-24T08:54:24;1.80;;;1.70;;
4646;SDS011;2336;47.822;7.564;2023-04-24T08:56:51;4.40;;;1.60;;
4646;SDS011;2336;47.822;7.564;2023-04-24T08:59:21;1.60;;;1.50;;
4646;SDS011;2336;47.822;7.564;2023-04-24T09:01:49;1.63;;;1.53;;
4646;SDS011;2336;47.822;7.564;2023-04-24T09:04:18;1.80;;;1.70;;
4646;SDS011;2336;47.822;7.564;2023-04-24T09:06:50;1.97;;;1.80;;
4646;SDS011;2336;47.822;7.564;2023-04-24T09:09:17;3.77;;;1.90;;
4646;SDS011;2336;47.822;7.564;2023-04-24T09:11:44;5.87;;;1.73;;
4646;SDS011;2336;47.822;7.564;2023-04-24T09:14:12;1.70;;;1.70;;
4646;SDS011;2336;47.822;7.564;2023-04-24T09:16:39;3.70;;;1.90;;
4646;SDS011;2336;47.822;7.564;2023-04-24T09:19:06;2.00;;;1.60;;
4646;SDS011;2336;47.822;7.564;2023-04-24T09:21:33;4.70;;;2.07;;
4646;SDS011;2336;47.822;7.564;2023-04-24T09:24:03;1.80;;;1.70;;
4646;SDS011;2336;47.822;7.564;2023-04-24T09:26:32;1.63;;;1.53;;
4646;SDS011;2336;47.822;7.564;2023-04-24T09:29:01;1.63;;;1.53;;
4646;SDS011;2336;47.822;7.564;2023-04-24T09:31:29;1.47;;;1.40;;
4646;SDS011;2336;47.822;7.564;2023-04-24T09:33:57;1.83;;;1.20;;
4646;SDS011;2336;47.822;7.564;2023-04-24T09:36:28;1.40;;;1.30;;
4646;SDS011;2336;47.822;7.564;2023-04-24T09:38:58;1.60;;;1.50;;
4646;SDS011;2336;47.822;7.564;2023-04-24T09:41:27;2.20;;;1.20;;
4646;SDS011;2336;47.822;7.564;2023-04-24T09:43:54;1.40;;;1.30;;
4646;SDS011;2336;47.822;7.564;2023-04-24T09:46:28;1.37;;;1.27;;
4646;SDS011;2336;47.822;7.564;2023-04-24T09:48:56;2.70;;;1.80;;
4646;SDS011;2336;47.822;7.564;2023-04-24T09:51:32;0.97;;;0.97;;
4646;SDS011;2336;47.822;7.564;2023-04-24T09:54:00;1.20;;;1.13;;
4646;SDS011;2336;47.822;7.564;2023-04-24T09:56:29;1.40;;;1.30;;
4646;SDS011;2336;47.822;7.564;2023-04-24T09:59:04;1.20;;;1.20;;
4646;SDS011;2336;47.822;7.564;2023-04-24T10:01:31;2.10;;;0.90;;
4646;SDS011;2336;47.822;7.564;2023-04-24T10:03:58;1.10;;;1.10;;
4646;SDS011;2336;47.822;7.564;2023-04-24T10:06:29;2.00;;;1.33;;
4646;SDS011;2336;47.822;7.564;2023-04-24T10:08:58;2.60;;;1.10;;
4646;SDS011;2336;47.822;7.564;2023-04-24T10:11:26;1.10;;;1.10;;
4646;SDS011;2336;47.822;7.564;2023-04-24T10:13:55;1.40;;;1.30;;
4646;SDS011;2336;47.822;7.564;2023-04-24T10:16:23;1.30;;;1.20;;
4646;SDS011;2336;47.822;7.564;2023-04-24T10:18:52;1.50;;;1.27;;
4646;SDS011;2336;47.822;7.564;2023-04-24T10:21:19;1.37;;;1.37;;
4646;SDS011;2336;47.822;7.564;2023-04-24T10:23:46;1.13;;;1.10;;
4646;SDS011;2336;47.822;7.564;2023-04-24T10:26:15;9.80;;;1.30;;
4646;SDS011;2336;47.822;7.564;2023-04-24T10:28:46;2.50;;;1.40;;
4646;SDS011;2336;47.822;7.564;2023-04-24T10:31:13;2.67;;;1.33;;
4646;SDS011;2336;47.822;7.564;2023-04-24T10:33:41;1.23;;;1.00;;
4646;SDS011;2336;47.822;7.564;2023-04-24T10:36:09;1.03;;;1.00;;
4646;SDS011;2336;47.822;7.564;2023-04-24T10:38:37;1.23;;;1.23;;
4646;SDS011;2336;47.822;7.564;2023-04-24T10:41:07;1.70;;;1.10;;
4646;SDS011;2336;47.822;7.564;2023-04-24T10:43:35;1.07;;;1.07;;
4646;SDS011;2336;47.822;7.564;2023-04-24T10:46:03;1.30;;;1.00;;
4646;SDS011;2336;47.822;7.564;2023-04-24T10:48:31;1.10;;;1.00;;
4646;SDS011;2336;47.822;7.564;2023-04-24T10:50:58;1.00;;;1.00;;
4646;SDS011;2336;47.822;7.564;2023-04-24T10:53:27;1.47;;;1.37;;
4646;SDS011;2336;47.822;7.564;2023-04-24T10:55:57;1.27;;;1.20;;
4646;SDS011;2336;47.822;7.564;2023-04-24T10:58:35;1.00;;;1.00;;
4646;SDS011;2336;47.822;7.564;2023-04-24T11:01:06;1.10;;;1.10;;
4646;SDS011;2336;47.822;7.564;2023-04-24T11:03:34;1.17;;;1.17;;
4646;SDS011;2336;47.822;7.564;2023-04-24T11:06:02;1.53;;;1.43;;
4646;SDS011;2336;47.822;7.564;2023-04-24T11:08:31;3.00;;;2.80;;
4646;SDS011;2336;47.822;7.564;2023-04-24T11:11:07;1.97;;;1.43;;
4646;SDS011;2336;47.822;7.564;2023-04-24T11:16:29;4.50;;;2.40;;
4646;SDS011;2336;47.822;7.564;2023-04-24T11:19:02;2.13;;;2.03;;
4646;SDS011;2336;47.822;7.564;2023-04-24T11:21:40;1.40;;;1.30;;
4646;SDS011;2336;47.822;7.564;2023-04-24T11:26:56;1.90;;;1.57;;
4646;SDS011;2336;47.822;7.564;2023-04-24T11:29:38;2.80;;;1.37;;
4646;SDS011;2336;47.822;7.564;2023-04-24T11:32:23;1.57;;;1.57;;
4646;SDS011;2336;47.822;7.564;2023-04-24T11:34:52;1.57;;;1.40;;
4646;SDS011;2336;47.822;7.564;2023-04-24T11:37:20;1.50;;;1.47;;
4646;SDS011;2336;47.822;7.564;2023-04-24T11:39:49;1.70;;;1.60;;
4646;SDS011;2336;47.822;7.564;2023-04-24T11:42:17;1.30;;;1.20;;
4646;SDS011;2336;47.822;7.564;2023-04-24T11:44:45;1.17;;;1.07;;
4646;SDS011;2336;47.822;7.564;2023-04-24T11:47:13;9.57;;;8.63;;
4646;SDS011;2336;47.822;7.564;2023-04-24T11:49:41;6.60;;;6.00;;
4646;SDS011;2336;47.822;7.564;2023-04-24T11:52:08;7.87;;;7.17;;
4646;SDS011;2336;47.822;7.564;2023-04-24T11:54:35;3.23;;;3.10;;
4646;SDS011;2336;47.822;7.564;2023-04-24T11:57:03;2.87;;;2.67;;
4646;SDS011;2336;47.822;7.564;2023-04-24T11:59:34;3.50;;;2.73;;
4646;SDS011;2336;47.822;7.564;2023-04-24T12:02:01;10.27;;;9.37;;
4646;SDS011;2336;47.822;7.564;2023-04-24T12:04:37;5.57;;;5.27;;
4646;SDS011;2336;47.822;7.564;2023-04-24T12:07:06;3.07;;;2.77;;
4646;SDS011;2336;47.822;7.564;2023-04-24T12:09:40;2.17;;;2.07;;
4646;SDS011;2336;47.822;7.564;2023-04-24T12:12:08;2.50;;;2.33;;
4646;SDS011;2336;47.822;7.564;2023-04-24T12:14:41;3.33;;;3.03;;
4646;SDS011;2336;47.822;7.564;2023-04-24T12:17:13;3.00;;;1.30;;
4646;SDS011;2336;47.822;7.564;2023-04-24T12:19:44;6.60;;;2.63;;
4646;SDS011;2336;47.822;7.564;2023-04-24T12:22:13;3.40;;;1.53;;
4646;SDS011;2336;47.822;7.564;2023-04-24T12:24:56;1.60;;;1.50;;
4646;SDS011;2336;47.822;7.564;2023-04-24T12:27:29;9.03;;;8.23;;
4646;SDS011;2336;47.822;7.564;2023-04-24T12:29:57;16.33;;;14.20;;
4646;SDS011;2336;47.822;7.564;2023-04-24T12:32:24;5.57;;;5.10;;
4646;SDS011;2336;47.822;7.564;2023-04-24T12:34:52;12.83;;;11.50;;
4646;SDS011;2336;47.822;7.564;2023-04-24T12:37:20;4.37;;;3.80;;
4646;SDS011;2336;47.822;7.564;2023-04-24T12:39:58;5.77;;;3.90;;
4646;SDS011;2336;47.822;7.564;2023-04-24T12:42:26;6.60;;;6.00;;
4646;SDS011;2336;47.822;7.564;2023-04-24T12:44:56;5.50;;;5.07;;
4646;SDS011;2336;47.822;7.564;2023-04-24T12:47:24;3.87;;;3.67;;
4646;SDS011;2336;47.822;7.564;2023-04-24T12:49:51;15.23;;;13.40;;
4646;SDS011;2336;47.822;7.564;2023-04-24T12:52:18;13.80;;;11.70;;
4646;SDS011;2336;47.822;7.564;2023-04-24T12:54:47;2.43;;;1.97;;
4646;SDS011;2336;47.822;7.564;2023-04-24T12:57:13;14.77;;;12.80;;
4646;SDS011;2336;47.822;7.564;2023-04-24T12:59:40;28.57;;;24.67;;
4646;SDS011;2336;47.822;7.564;2023-04-24T13:02:07;17.73;;;15.83;;
4646;SDS011;2336;47.822;7.564;2023-04-24T13:04:35;6.47;;;5.87;;
4646;SDS011;2336;47.822;7.564;2023-04-24T13:07:02;1.20;;;1.20;;
4646;SDS011;2336;47.822;7.564;2023-04-24T13:09:29;5.93;;;5.60;;
4646;SDS011;2336;47.822;7.564;2023-04-24T13:11:57;11.30;;;8.43;;
4646;SDS011;2336;47.822;7.564;2023-04-24T13:14:25;2.93;;;1.40;;
4646;SDS011;2336;47.822;7.564;2023-04-24T13:16:52;1.40;;;1.40;;
4646;SDS011;2336;47.822;7.564;2023-04-24T13:19:19;2.43;;;2.33;;
4646;SDS011;2336;47.822;7.564;2023-04-24T13:21:46;1.90;;;1.30;;
4646;SDS011;2336;47.822;7.564;2023-04-24T13:24:12;2.70;;;2.50;;
4646;SDS011;2336;47.822;7.564;2023-04-24T13:26:40;1.30;;;1.30;;
4646;SDS011;2336;47.822;7.564;2023-04-24T13:29:08;1.40;;;1.30;;
4646;SDS011;2336;47.822;7.564;2023-04-24T13:31:35;1.47;;;1.40;;
4646;SDS011;2336;47.822;7.564;2023-04-24T13:34:02;2.03;;;1.83;;
4646;SDS011;2336;47.822;7.564;2023-04-24T13:36:29;2.00;;;1.53;;
4646;SDS011;2336;47.822;7.564;2023-04-24T13:38:56;2.30;;;1.80;;
4646;SDS011;2336;47.822;7.564;2023-04-24T13:41:23;1.77;;;1.67;;
4646;SDS011;2336;47.822;7.564;2023-04-24T13:43:50;1.97;;;1.87;;
4646;SDS011;2336;47.822;7.564;2023-04-24T13:46:18;1.77;;;1.77;;
4646;SDS011;2336;47.822;7.564;2023-04-24T13:48:45;1.30;;;1.30;;
4646;SDS011;2336;47.822;7.564;2023-04-24T13:51:11;3.80;;;1.40;;
4646;SDS011;2336;47.822;7.564;2023-04-24T13:53:38;1.50;;;1.40;;
4646;SDS011;2336;47.822;7.564;2023-04-24T13:56:05;3.10;;;1.23;;
4646;SDS011;2336;47.822;7.564;2023-04-24T13:58:32;1.40;;;1.33;;
4646;SDS011;2336;47.822;7.564;2023-04-24T14:00:59;1.60;;;1.50;;
4646;SDS011;2336;47.822;7.564;2023-04-24T14:03:27;1.80;;;1.70;;
4646;SDS011;2336;47.822;7.564;2023-04-24T14:05:54;1.57;;;1.47;;
4646;SDS011;2336;47.822;7.564;2023-04-24T14:08:21;1.50;;;1.50;;
4646;SDS011;2336;47.822;7.564;2023-04-24T14:10:47;1.53;;;1.50;;
4646;SDS011;2336;47.822;7.564;2023-04-24T14:13:16;3.90;;;1.63;;
4646;SDS011;2336;47.822;7.564;2023-04-24T14:15:44;1.50;;;1.40;;
4646;SDS011;2336;47.822;7.564;2023-04-24T14:18:10;1.70;;;1.70;;
4646;SDS011;2336;47.822;7.564;2023-04-24T14:20:38;2.23;;;1.90;;
4646;SDS011;2336;47.822;7.564;2023-04-24T14:23:05;1.63;;;1.53;;
4646;SDS011;2336;47.822;7.564;2023-04-24T14:25:32;4.23;;;1.80;;
4646;SDS011;2336;47.822;7.564;2023-04-24T14:27:59;1.40;;;1.30;;
4646;SDS011;2336;47.822;7.564;2023-04-24T14:30:25;1.60;;;1.60;;
4646;SDS011;2336;47.822;7.564;2023-04-24T14:32:52;1.50;;;1.50;;
4646;SDS011;2336;47.822;7.564;2023-04-24T14:35:19;1.60;;;1.60;;
4646;SDS011;2336;47.822;7.564;2023-04-24T14:37:47;1.90;;;1.80;;
4646;SDS011;2336;47.822;7.564;2023-04-24T14:40:14;1.60;;;1.50;;
4646;SDS011;2336;47.822;7.564;2023-04-24T14:42:41;1.87;;;1.77;;
4646;SDS011;2336;47.822;7.564;2023-04-24T14:45:08;3.23;;;1.70;;
4646;SDS011;2336;47.822;7.564;2023-04-24T14:47:36;5.50;;;1.80;;
4646;SDS011;2336;47.822;7.564;2023-04-24T14:50:03;2.20;;;2.10;;
4646;SDS011;2336;47.822;7.564;2023-04-24T14:52:33;3.00;;;2.00;;
4646;SDS011;2336;47.822;7.564;2023-04-24T14:55:01;1.73;;;1.73;;
4646;SDS011;2336;47.822;7.564;2023-04-24T14:57:28;2.07;;;1.60;;
4646;SDS011;2336;47.822;7.564;2023-04-24T14:59:55;1.97;;;1.83;;
4646;SDS011;2336;47.822;7.564;2023-04-24T15:02:21;2.20;;;2.10;;
4646;SDS011;2336;47.822;7.564;2023-04-24T15:04:48;4.00;;;3.70;;
4646;SDS011;2336;47.822;7.564;2023-04-24T15:07:15;2.30;;;2.17;;
4646;SDS011;2336;47.822;7.564;2023-04-24T15:09:41;2.20;;;2.20;;
4646;SDS011;2336;47.822;7.564;2023-04-24T15:12:10;2.20;;;1.93;;
4646;SDS011;2336;47.822;7.564;2023-04-24T15:14:37;2.50;;;2.30;;
4646;SDS011;2336;47.822;7.564;2023-04-24T15:17:04;2.83;;;2.37;;
4646;SDS011;2336;47.822;7.564;2023-04-24T15:19:31;2.40;;;2.20;;
4646;SDS011;2336;47.822;7.564;2023-04-24T15:21:58;2.40;;;2.30;;
4646;SDS011;2336;47.822;7.564;2023-04-24T15:24:24;2.40;;;2.20;;